sensor_id;sensor_type;location;lat;lon;timestamp;P1;durP1;ratioP1;P2;durP2;ratioP2
8857;SDS011;4465;50.904;4.696;2022-09-17T00:00:46;11.70;;;1.80;;
8857;SDS011;4465;50.904;4.696;2022-09-17T00:03:16;11.75;;;1.80;;
8857;SDS011;4465;50.904;4.696;2022-09-17T00:05:42;9.52;;;1.60;;
8857;SDS011;4465;50.904;4.696;2022-09-17T00:08:10;10.15;;;1.42;;
8857;SDS011;4465;50.904;4.696;2022-09-17T00:10:39;6.55;;;1.63;;
8857;SDS011;4465;50.904;4.696;2022-09-17T00:13:06;7.85;;;2.22;;
8857;SDS011;4465;50.904;4.696;2022-09-17T00:15:40;12.27;;;1.92;;
8857;SDS011;4465;50.904;4.696;2022-09-17T00:18:07;13.95;;;1.88;;
8857;SDS011;4465;50.904;4.696;2022-09-17T00:20:37;11.77;;;2.55;;
8857;SDS011;4465;50.904;4.696;2022-09-17T00:23:06;12.48;;;1.92;;
8857;SDS011;4465;50.904;4.696;2022-09-17T00:25:36;11.77;;;2.28;;
8857;SDS011;4465;50.904;4.696;2022-09-17T00:28:03;10.35;;;2.08;;
8857;SDS011;4465;50.904;4.696;2022-09-17T00:30:32;12.65;;;1.98;;
8857;SDS011;4465;50.904;4.696;2022-09-17T00:33:00;9.52;;;1.90;;
8857;SDS011;4465;50.904;4.696;2022-09-17T00:35:26;10.55;;;1.67;;
8857;SDS011;4465;50.904;4.696;2022-09-17T00:37:52;11.63;;;2.15;;
8857;SDS011;4465;50.904;4.696;2022-09-17T00:40:19;14.15;;;2.08;;
8857;SDS011;4465;50.904;4.696;2022-09-17T00:42:46;10.32;;;1.90;;
8857;SDS011;4465;50.904;4.696;2022-09-17T00:45:12;12.77;;;1.85;;
8857;SDS011;4465;50.904;4.696;2022-09-17T00:47:40;8.70;;;1.77;;
8857;SDS011;4465;50.904;4.696;2022-09-17T00:50:15;17.60;;;2.10;;
8857;SDS011;4465;50.904;4.696;2022-09-17T00:53:16;13.88;;;2.35;;
8857;SDS011;4465;50.904;4.696;2022-09-17T00:55:54;9.75;;;1.90;;
8857;SDS011;4465;50.904;4.696;2022-09-17T00:58:26;14.02;;;1.95;;
8857;SDS011;4465;50.904;4.696;2022-09-17T01:00:54;21.15;;;2.30;;
8857;SDS011;4465;50.904;4.696;2022-09-17T01:03:23;10.20;;;2.30;;
8857;SDS011;4465;50.904;4.696;2022-09-17T01:05:54;19.10;;;2.67;;
8857;SDS011;4465;50.904;4.696;2022-09-17T01:08:37;12.15;;;2.53;;
8857;SDS011;4465;50.904;4.696;2022-09-17T01:25:22;14.00;;;2.70;;
8857;SDS011;4465;50.904;4.696;2022-09-17T01:30:53;15.75;;;2.05;;
8857;SDS011;4465;50.904;4.696;2022-09-17T01:33:50;9.93;;;2.10;;
8857;SDS011;4465;50.904;4.696;2022-09-17T01:36:45;8.35;;;2.00;;
8857;SDS011;4465;50.904;4.696;2022-09-17T01:42:15;9.18;;;1.90;;
8857;SDS011;4465;50.904;4.696;2022-09-17T01:47:36;9.13;;;1.67;;
8857;SDS011;4465;50.904;4.696;2022-09-17T01:50:10;14.10;;;1.83;;
8857;SDS011;4465;50.904;4.696;2022-09-17T01:52:42;19.75;;;2.72;;
8857;SDS011;4465;50.904;4.696;2022-09-17T01:55:13;12.30;;;1.92;;
8857;SDS011;4465;50.904;4.696;2022-09-17T01:57:50;13.68;;;2.15;;
8857;SDS011;4465;50.904;4.696;2022-09-17T02:00:40;13.98;;;1.75;;
8857;SDS011;4465;50.904;4.696;2022-09-17T02:05:54;11.43;;;1.77;;
8857;SDS011;4465;50.904;4.696;2022-09-17T02:08:34;13.10;;;2.13;;
8857;SDS011;4465;50.904;4.696;2022-09-17T02:13:42;8.75;;;1.55;;
8857;SDS011;4465;50.904;4.696;2022-09-17T02:16:29;10.25;;;2.08;;
8857;SDS011;4465;50.904;4.696;2022-09-17T02:29:30;14.32;;;2.22;;
8857;SDS011;4465;50.904;4.696;2022-09-17T02:31:59;12.82;;;2.00;;
8857;SDS011;4465;50.904;4.696;2022-09-17T02:34:26;17.70;;;2.33;;
8857;SDS011;4465;50.904;4.696;2022-09-17T02:36:54;8.95;;;2.13;;
8857;SDS011;4465;50.904;4.696;2022-09-17T02:39:24;10.88;;;1.88;;
8857;SDS011;4465;50.904;4.696;2022-09-17T03:01:20;6.97;;;1.80;;
8857;SDS011;4465;50.904;4.696;2022-09-17T03:03:58;16.60;;;1.80;;
8857;SDS011;4465;50.904;4.696;2022-09-17T03:06:26;14.50;;;2.35;;
8857;SDS011;4465;50.904;4.696;2022-09-17T03:08:53;13.32;;;2.17;;
8857;SDS011;4465;50.904;4.696;2022-09-17T03:11:21;17.85;;;2.42;;
8857;SDS011;4465;50.904;4.696;2022-09-17T03:13:48;13.93;;;1.90;;
8857;SDS011;4465;50.904;4.696;2022-09-17T03:16:14;18.17;;;2.90;;
8857;SDS011;4465;50.904;4.696;2022-09-17T03:18:40;15.10;;;2.05;;
8857;SDS011;4465;50.904;4.696;2022-09-17T03:21:07;9.43;;;1.98;;
8857;SDS011;4465;50.904;4.696;2022-09-17T03:23:33;9.90;;;1.95;;
8857;SDS011;4465;50.904;4.696;2022-09-17T03:25:59;22.17;;;1.88;;
8857;SDS011;4465;50.904;4.696;2022-09-17T03:28:25;15.68;;;1.98;;
8857;SDS011;4465;50.904;4.696;2022-09-17T03:30:51;11.30;;;1.90;;
8857;SDS011;4465;50.904;4.696;2022-09-17T03:33:18;19.50;;;2.30;;
8857;SDS011;4465;50.904;4.696;2022-09-17T03:35:44;14.55;;;2.42;;
8857;SDS011;4465;50.904;4.696;2022-09-17T03:38:11;12.40;;;1.98;;
8857;SDS011;4465;50.904;4.696;2022-09-17T03:43:05;20.00;;;2.70;;
8857;SDS011;4465;50.904;4.696;2022-09-17T03:45:32;16.85;;;2.20;;
8857;SDS011;4465;50.904;4.696;2022-09-17T03:47:58;23.58;;;2.50;;
8857;SDS011;4465;50.904;4.696;2022-09-17T03:50:25;9.75;;;2.05;;
8857;SDS011;4465;50.904;4.696;2022-09-17T03:52:51;14.63;;;1.60;;
8857;SDS011;4465;50.904;4.696;2022-09-17T03:55:17;20.60;;;2.20;;
8857;SDS011;4465;50.904;4.696;2022-09-17T03:57:46;19.73;;;2.25;;
8857;SDS011;4465;50.904;4.696;2022-09-17T04:00:12;18.20;;;2.45;;
8857;SDS011;4465;50.904;4.696;2022-09-17T04:02:41;12.73;;;2.00;;
8857;SDS011;4465;50.904;4.696;2022-09-17T04:05:08;16.08;;;1.80;;
8857;SDS011;4465;50.904;4.696;2022-09-17T04:07:34;13.93;;;1.98;;
8857;SDS011;4465;50.904;4.696;2022-09-17T04:10:00;16.42;;;2.20;;
8857;SDS011;4465;50.904;4.696;2022-09-17T04:12:27;15.38;;;1.88;;
8857;SDS011;4465;50.904;4.696;2022-09-17T04:14:53;17.13;;;2.13;;
8857;SDS011;4465;50.904;4.696;2022-09-17T04:17:22;19.85;;;2.22;;
8857;SDS011;4465;50.904;4.696;2022-09-17T04:19:50;21.35;;;2.55;;
8857;SDS011;4465;50.904;4.696;2022-09-17T04:22:21;17.88;;;2.08;;
8857;SDS011;4465;50.904;4.696;2022-09-17T04:24:48;14.80;;;2.08;;
8857;SDS011;4465;50.904;4.696;2022-09-17T04:27:14;16.80;;;2.03;;
8857;SDS011;4465;50.904;4.696;2022-09-17T04:29:40;14.05;;;2.38;;
8857;SDS011;4465;50.904;4.696;2022-09-17T04:32:06;21.35;;;3.08;;
8857;SDS011;4465;50.904;4.696;2022-09-17T04:34:33;17.48;;;2.50;;
8857;SDS011;4465;50.904;4.696;2022-09-17T04:36:59;21.65;;;3.08;;
8857;SDS011;4465;50.904;4.696;2022-09-17T04:39:26;21.55;;;3.28;;
8857;SDS011;4465;50.904;4.696;2022-09-17T04:41:52;17.48;;;3.03;;
8857;SDS011;4465;50.904;4.696;2022-09-17T04:44:19;12.88;;;3.00;;
8857;SDS011;4465;50.904;4.696;2022-09-17T04:46:45;23.55;;;2.83;;
8857;SDS011;4465;50.904;4.696;2022-09-17T04:49:11;22.42;;;3.08;;
8857;SDS011;4465;50.904;4.696;2022-09-17T04:51:37;22.52;;;3.47;;
8857;SDS011;4465;50.904;4.696;2022-09-17T04:54:03;13.93;;;2.38;;
8857;SDS011;4465;50.904;4.696;2022-09-17T04:56:29;15.15;;;2.20;;
8857;SDS011;4465;50.904;4.696;2022-09-17T04:58:55;20.10;;;2.88;;
8857;SDS011;4465;50.904;4.696;2022-09-17T05:01:24;22.80;;;2.40;;
8857;SDS011;4465;50.904;4.696;2022-09-17T05:03:50;16.17;;;2.83;;
8857;SDS011;4465;50.904;4.696;2022-09-17T05:06:16;20.00;;;2.20;;
8857;SDS011;4465;50.904;4.696;2022-09-17T05:08:42;15.55;;;2.88;;
8857;SDS011;4465;50.904;4.696;2022-09-17T05:11:13;13.55;;;2.38;;
8857;SDS011;4465;50.904;4.696;2022-09-17T05:13:40;9.57;;;1.88;;
8857;SDS011;4465;50.904;4.696;2022-09-17T05:16:06;13.52;;;2.00;;
8857;SDS011;4465;50.904;4.696;2022-09-17T05:18:34;11.25;;;2.10;;
8857;SDS011;4465;50.904;4.696;2022-09-17T05:21:00;10.10;;;1.67;;
8857;SDS011;4465;50.904;4.696;2022-09-17T05:23:27;11.23;;;2.00;;
8857;SDS011;4465;50.904;4.696;2022-09-17T05:25:56;17.63;;;2.08;;
8857;SDS011;4465;50.904;4.696;2022-09-17T05:28:24;14.45;;;1.85;;
8857;SDS011;4465;50.904;4.696;2022-09-17T05:30:50;10.27;;;1.70;;
8857;SDS011;4465;50.904;4.696;2022-09-17T05:33:16;9.57;;;2.03;;
8857;SDS011;4465;50.904;4.696;2022-09-17T05:35:43;10.65;;;1.90;;
8857;SDS011;4465;50.904;4.696;2022-09-17T05:38:12;20.33;;;2.05;;
8857;SDS011;4465;50.904;4.696;2022-09-17T05:40:38;10.43;;;2.00;;
8857;SDS011;4465;50.904;4.696;2022-09-17T05:43:05;15.82;;;2.85;;
8857;SDS011;4465;50.904;4.696;2022-09-17T05:45:32;16.50;;;2.23;;
8857;SDS011;4465;50.904;4.696;2022-09-17T05:47:59;15.23;;;2.80;;
8857;SDS011;4465;50.904;4.696;2022-09-17T05:50:27;18.42;;;2.38;;
8857;SDS011;4465;50.904;4.696;2022-09-17T05:52:56;15.73;;;3.05;;
8857;SDS011;4465;50.904;4.696;2022-09-17T05:55:27;16.60;;;2.22;;
8857;SDS011;4465;50.904;4.696;2022-09-17T05:57:54;22.52;;;2.75;;
8857;SDS011;4465;50.904;4.696;2022-09-17T06:00:20;19.30;;;3.28;;
8857;SDS011;4465;50.904;4.696;2022-09-17T06:02:46;18.48;;;3.05;;
8857;SDS011;4465;50.904;4.696;2022-09-17T06:05:21;21.10;;;2.53;;
8857;SDS011;4465;50.904;4.696;2022-09-17T06:07:50;16.50;;;2.40;;
8857;SDS011;4465;50.904;4.696;2022-09-17T06:10:16;20.65;;;2.60;;
8857;SDS011;4465;50.904;4.696;2022-09-17T06:12:43;22.77;;;2.88;;
8857;SDS011;4465;50.904;4.696;2022-09-17T06:15:09;19.60;;;2.55;;
8857;SDS011;4465;50.904;4.696;2022-09-17T06:17:39;14.07;;;2.30;;
8857;SDS011;4465;50.904;4.696;2022-09-17T06:20:05;10.07;;;1.77;;
8857;SDS011;4465;50.904;4.696;2022-09-17T06:22:35;18.80;;;3.00;;
8857;SDS011;4465;50.904;4.696;2022-09-17T06:25:00;13.25;;;2.15;;
8857;SDS011;4465;50.904;4.696;2022-09-17T06:27:31;17.20;;;2.03;;
8857;SDS011;4465;50.904;4.696;2022-09-17T06:30:00;14.27;;;2.33;;
8857;SDS011;4465;50.904;4.696;2022-09-17T06:32:28;9.68;;;1.95;;
8857;SDS011;4465;50.904;4.696;2022-09-17T06:34:54;20.10;;;2.75;;
8857;SDS011;4465;50.904;4.696;2022-09-17T06:37:28;13.02;;;2.30;;
8857;SDS011;4465;50.904;4.696;2022-09-17T06:39:58;24.52;;;3.22;;
8857;SDS011;4465;50.904;4.696;2022-09-17T06:42:27;11.88;;;2.38;;
8857;SDS011;4465;50.904;4.696;2022-09-17T06:44:53;15.80;;;2.47;;
8857;SDS011;4465;50.904;4.696;2022-09-17T06:47:25;18.08;;;2.47;;
8857;SDS011;4465;50.904;4.696;2022-09-17T06:49:51;14.88;;;1.90;;
8857;SDS011;4465;50.904;4.696;2022-09-17T06:52:18;17.20;;;2.90;;
8857;SDS011;4465;50.904;4.696;2022-09-17T06:54:44;14.77;;;2.13;;
8857;SDS011;4465;50.904;4.696;2022-09-17T06:57:11;14.02;;;2.00;;
8857;SDS011;4465;50.904;4.696;2022-09-17T06:59:39;15.73;;;2.33;;
8857;SDS011;4465;50.904;4.696;2022-09-17T07:02:05;16.98;;;2.92;;
8857;SDS011;4465;50.904;4.696;2022-09-17T07:04:31;17.05;;;2.38;;
8857;SDS011;4465;50.904;4.696;2022-09-17T07:06:57;12.18;;;2.30;;
8857;SDS011;4465;50.904;4.696;2022-09-17T07:09:26;19.90;;;2.65;;
8857;SDS011;4465;50.904;4.696;2022-09-17T07:11:53;15.15;;;2.35;;
8857;SDS011;4465;50.904;4.696;2022-09-17T07:14:21;15.30;;;2.13;;
8857;SDS011;4465;50.904;4.696;2022-09-17T07:16:49;13.65;;;2.20;;
8857;SDS011;4465;50.904;4.696;2022-09-17T07:19:16;14.38;;;2.30;;
8857;SDS011;4465;50.904;4.696;2022-09-17T07:21:43;18.55;;;2.63;;
8857;SDS011;4465;50.904;4.696;2022-09-17T07:24:09;16.05;;;2.95;;
8857;SDS011;4465;50.904;4.696;2022-09-17T07:26:35;8.85;;;1.88;;
8857;SDS011;4465;50.904;4.696;2022-09-17T07:29:01;18.50;;;2.15;;
8857;SDS011;4465;50.904;4.696;2022-09-17T07:31:27;12.98;;;3.33;;
8857;SDS011;4465;50.904;4.696;2022-09-17T07:33:53;21.45;;;2.75;;
8857;SDS011;4465;50.904;4.696;2022-09-17T07:36:20;21.20;;;2.33;;
8857;SDS011;4465;50.904;4.696;2022-09-17T07:38:51;15.05;;;1.98;;
8857;SDS011;4465;50.904;4.696;2022-09-17T07:41:18;13.93;;;2.28;;
8857;SDS011;4465;50.904;4.696;2022-09-17T07:43:44;12.05;;;2.22;;
8857;SDS011;4465;50.904;4.696;2022-09-17T07:46:14;10.75;;;2.00;;
8857;SDS011;4465;50.904;4.696;2022-09-17T07:48:42;13.00;;;2.25;;
8857;SDS011;4465;50.904;4.696;2022-09-17T07:51:14;10.18;;;2.13;;
8857;SDS011;4465;50.904;4.696;2022-09-17T07:53:42;14.02;;;2.38;;
8857;SDS011;4465;50.904;4.696;2022-09-17T07:56:08;9.75;;;2.60;;
8857;SDS011;4465;50.904;4.696;2022-09-17T07:58:34;9.73;;;2.22;;
8857;SDS011;4465;50.904;4.696;2022-09-17T08:01:05;13.57;;;2.08;;
8857;SDS011;4465;50.904;4.696;2022-09-17T08:03:33;13.50;;;2.10;;
8857;SDS011;4465;50.904;4.696;2022-09-17T08:06:00;12.27;;;1.95;;
8857;SDS011;4465;50.904;4.696;2022-09-17T08:08:29;12.98;;;2.42;;
8857;SDS011;4465;50.904;4.696;2022-09-17T08:11:03;12.18;;;1.77;;
8857;SDS011;4465;50.904;4.696;2022-09-17T08:13:36;14.25;;;2.50;;
8857;SDS011;4465;50.904;4.696;2022-09-17T08:16:07;8.25;;;2.30;;
8857;SDS011;4465;50.904;4.696;2022-09-17T08:18:34;13.98;;;2.10;;
8857;SDS011;4465;50.904;4.696;2022-09-17T08:21:05;13.55;;;2.53;;
8857;SDS011;4465;50.904;4.696;2022-09-17T08:23:36;19.67;;;2.35;;
8857;SDS011;4465;50.904;4.696;2022-09-17T08:26:22;13.27;;;1.70;;
8857;SDS011;4465;50.904;4.696;2022-09-17T08:28:50;11.70;;;2.10;;
8857;SDS011;4465;50.904;4.696;2022-09-17T08:31:20;13.95;;;1.80;;
8857;SDS011;4465;50.904;4.696;2022-09-17T08:33:48;13.05;;;1.85;;
8857;SDS011;4465;50.904;4.696;2022-09-17T08:36:18;14.35;;;2.10;;
8857;SDS011;4465;50.904;4.696;2022-09-17T08:38:48;16.33;;;2.80;;
8857;SDS011;4465;50.904;4.696;2022-09-17T08:44:19;13.38;;;2.50;;
8857;SDS011;4465;50.904;4.696;2022-09-17T08:47:13;16.55;;;2.25;;
8857;SDS011;4465;50.904;4.696;2022-09-17T08:50:01;10.68;;;2.20;;
8857;SDS011;4465;50.904;4.696;2022-09-17T08:55:42;14.32;;;2.05;;
8857;SDS011;4465;50.904;4.696;2022-09-17T09:01:06;13.40;;;2.38;;
8857;SDS011;4465;50.904;4.696;2022-09-17T09:06:45;8.65;;;1.90;;
8857;SDS011;4465;50.904;4.696;2022-09-17T09:09:16;11.70;;;1.55;;
8857;SDS011;4465;50.904;4.696;2022-09-17T09:11:45;10.02;;;2.28;;
8857;SDS011;4465;50.904;4.696;2022-09-17T09:14:27;17.20;;;2.38;;
8857;SDS011;4465;50.904;4.696;2022-09-17T09:17:03;12.63;;;1.75;;
8857;SDS011;4465;50.904;4.696;2022-09-17T09:19:41;9.38;;;1.50;;
8857;SDS011;4465;50.904;4.696;2022-09-17T09:22:23;7.35;;;1.77;;
8857;SDS011;4465;50.904;4.696;2022-09-17T09:27:25;14.38;;;2.13;;
8857;SDS011;4465;50.904;4.696;2022-09-17T09:30:00;15.93;;;2.17;;
8857;SDS011;4465;50.904;4.696;2022-09-17T09:35:27;11.95;;;2.08;;
8857;SDS011;4465;50.904;4.696;2022-09-17T09:38:03;12.38;;;1.77;;
8857;SDS011;4465;50.904;4.696;2022-09-17T09:40:45;8.50;;;2.00;;
8857;SDS011;4465;50.904;4.696;2022-09-17T09:43:22;6.55;;;1.13;;
8857;SDS011;4465;50.904;4.696;2022-09-17T09:54:11;6.90;;;1.50;;
8857;SDS011;4465;50.904;4.696;2022-09-17T09:56:55;7.55;;;1.50;;
8857;SDS011;4465;50.904;4.696;2022-09-17T09:59:26;10.88;;;1.50;;
8857;SDS011;4465;50.904;4.696;2022-09-17T10:01:54;9.52;;;2.25;;
8857;SDS011;4465;50.904;4.696;2022-09-17T10:04:25;10.90;;;1.77;;
8857;SDS011;4465;50.904;4.696;2022-09-17T10:06:53;9.13;;;2.05;;
8857;SDS011;4465;50.904;4.696;2022-09-17T10:09:24;12.85;;;2.38;;
8857;SDS011;4465;50.904;4.696;2022-09-17T10:12:37;14.32;;;2.35;;
8857;SDS011;4465;50.904;4.696;2022-09-17T10:14:43;8.32;;;2.00;;
8857;SDS011;4465;50.904;4.696;2022-09-17T10:19:41;15.65;;;2.42;;
8857;SDS011;4465;50.904;4.696;2022-09-17T10:24:50;10.48;;;1.45;;
8857;SDS011;4465;50.904;4.696;2022-09-17T10:27:18;11.07;;;1.20;;
8857;SDS011;4465;50.904;4.696;2022-09-17T10:29:47;9.23;;;1.27;;
8857;SDS011;4465;50.904;4.696;2022-09-17T10:32:19;8.80;;;0.80;;
8857;SDS011;4465;50.904;4.696;2022-09-17T10:34:57;10.85;;;1.02;;
8857;SDS011;4465;50.904;4.696;2022-09-17T10:37:46;10.75;;;1.10;;
8857;SDS011;4465;50.904;4.696;2022-09-17T10:42:46;3.08;;;0.63;;
8857;SDS011;4465;50.904;4.696;2022-09-17T10:45:29;2.25;;;0.65;;
8857;SDS011;4465;50.904;4.696;2022-09-17T10:47:57;2.80;;;0.60;;
8857;SDS011;4465;50.904;4.696;2022-09-17T10:50:28;4.13;;;0.60;;
8857;SDS011;4465;50.904;4.696;2022-09-17T10:53:00;6.70;;;0.70;;
8857;SDS011;4465;50.904;4.696;2022-09-17T10:56:17;1.58;;;0.57;;
8857;SDS011;4465;50.904;4.696;2022-09-17T11:03:58;5.35;;;1.45;;
8857;SDS011;4465;50.904;4.696;2022-09-17T11:12:00;12.40;;;1.15;;
8857;SDS011;4465;50.904;4.696;2022-09-17T11:32:13;4.38;;;1.38;;
8857;SDS011;4465;50.904;4.696;2022-09-17T11:34:45;7.53;;;0.98;;
8857;SDS011;4465;50.904;4.696;2022-09-17T11:40:04;3.20;;;1.20;;
8857;SDS011;4465;50.904;4.696;2022-09-17T11:42:43;10.23;;;1.08;;
8857;SDS011;4465;50.904;4.696;2022-09-17T11:45:24;9.75;;;1.00;;
8857;SDS011;4465;50.904;4.696;2022-09-17T11:51:06;5.10;;;1.07;;
8857;SDS011;4465;50.904;4.696;2022-09-17T11:54:14;5.43;;;1.00;;
8857;SDS011;4465;50.904;4.696;2022-09-17T11:56:57;3.80;;;0.85;;
8857;SDS011;4465;50.904;4.696;2022-09-17T12:07:46;5.78;;;1.25;;
8857;SDS011;4465;50.904;4.696;2022-09-17T12:12:58;6.18;;;1.10;;
8857;SDS011;4465;50.904;4.696;2022-09-17T12:21:35;7.10;;;1.10;;
8857;SDS011;4465;50.904;4.696;2022-09-17T12:24:13;12.30;;;1.58;;
8857;SDS011;4465;50.904;4.696;2022-09-17T12:30:05;9.50;;;1.67;;
8857;SDS011;4465;50.904;4.696;2022-09-17T12:51:50;13.18;;;1.85;;
8857;SDS011;4465;50.904;4.696;2022-09-17T12:57:31;9.80;;;1.75;;
8857;SDS011;4465;50.904;4.696;2022-09-17T13:00:19;9.88;;;1.73;;
8857;SDS011;4465;50.904;4.696;2022-09-17T13:13:42;16.67;;;2.55;;
8857;SDS011;4465;50.904;4.696;2022-09-17T13:16:13;11.55;;;2.13;;
8857;SDS011;4465;50.904;4.696;2022-09-17T13:22:00;12.60;;;2.10;;
8857;SDS011;4465;50.904;4.696;2022-09-17T13:24:31;16.27;;;2.20;;
8857;SDS011;4465;50.904;4.696;2022-09-17T13:27:00;13.45;;;2.20;;
8857;SDS011;4465;50.904;4.696;2022-09-17T13:38:13;15.63;;;2.10;;
8857;SDS011;4465;50.904;4.696;2022-09-17T13:40:27;17.88;;;2.92;;
8857;SDS011;4465;50.904;4.696;2022-09-17T13:43:17;13.25;;;2.17;;
8857;SDS011;4465;50.904;4.696;2022-09-17T13:48:24;8.27;;;1.80;;
8857;SDS011;4465;50.904;4.696;2022-09-17T13:50:55;15.40;;;2.13;;
8857;SDS011;4465;50.904;4.696;2022-09-17T13:53:25;20.42;;;2.88;;
8857;SDS011;4465;50.904;4.696;2022-09-17T13:55:56;20.33;;;3.40;;
8857;SDS011;4465;50.904;4.696;2022-09-17T13:58:29;11.40;;;2.38;;
8857;SDS011;4465;50.904;4.696;2022-09-17T14:01:00;11.95;;;1.90;;
8857;SDS011;4465;50.904;4.696;2022-09-17T14:19:01;6.75;;;1.50;;
8857;SDS011;4465;50.904;4.696;2022-09-17T14:21:56;9.45;;;1.92;;
8857;SDS011;4465;50.904;4.696;2022-09-17T14:24:35;9.98;;;1.30;;
8857;SDS011;4465;50.904;4.696;2022-09-17T14:32:26;9.20;;;1.77;;
8857;SDS011;4465;50.904;4.696;2022-09-17T14:35:03;6.97;;;1.00;;
8857;SDS011;4465;50.904;4.696;2022-09-17T14:37:44;7.85;;;0.98;;
8857;SDS011;4465;50.904;4.696;2022-09-17T14:40:16;4.55;;;0.90;;
8857;SDS011;4465;50.904;4.696;2022-09-17T14:42:44;4.90;;;0.88;;
8857;SDS011;4465;50.904;4.696;2022-09-17T14:50:47;6.53;;;1.15;;
8857;SDS011;4465;50.904;4.696;2022-09-17T14:53:20;2.75;;;0.70;;
8857;SDS011;4465;50.904;4.696;2022-09-17T14:55:48;6.00;;;0.90;;
8857;SDS011;4465;50.904;4.696;2022-09-17T14:58:29;6.47;;;1.08;;
8857;SDS011;4465;50.904;4.696;2022-09-17T15:00:59;9.90;;;1.23;;
8857;SDS011;4465;50.904;4.696;2022-09-17T15:03:28;6.18;;;1.00;;
8857;SDS011;4465;50.904;4.696;2022-09-17T15:05:56;8.73;;;1.02;;
8857;SDS011;4465;50.904;4.696;2022-09-17T15:08:23;6.03;;;0.98;;
8857;SDS011;4465;50.904;4.696;2022-09-17T15:13:26;7.60;;;1.10;;
8857;SDS011;4465;50.904;4.696;2022-09-17T15:16:04;15.10;;;1.08;;
8857;SDS011;4465;50.904;4.696;2022-09-17T15:18:58;7.47;;;1.23;;
8857;SDS011;4465;50.904;4.696;2022-09-17T15:24:31;5.07;;;0.70;;
8857;SDS011;4465;50.904;4.696;2022-09-17T15:27:15;6.75;;;0.98;;
8857;SDS011;4465;50.904;4.696;2022-09-17T15:29:53;4.43;;;0.77;;
8857;SDS011;4465;50.904;4.696;2022-09-17T15:32:21;5.18;;;0.93;;
8857;SDS011;4465;50.904;4.696;2022-09-17T15:35:08;6.95;;;1.30;;
8857;SDS011;4465;50.904;4.696;2022-09-17T15:37:44;5.30;;;0.90;;
8857;SDS011;4465;50.904;4.696;2022-09-17T15:40:28;6.45;;;0.70;;
8857;SDS011;4465;50.904;4.696;2022-09-17T15:43:13;12.57;;;1.35;;
8857;SDS011;4465;50.904;4.696;2022-09-17T15:45:47;6.70;;;1.25;;
8857;SDS011;4465;50.904;4.696;2022-09-17T15:48:56;10.20;;;1.30;;
8857;SDS011;4465;50.904;4.696;2022-09-17T15:51:39;7.18;;;1.35;;
8857;SDS011;4465;50.904;4.696;2022-09-17T15:54:01;6.03;;;1.75;;
8857;SDS011;4465;50.904;4.696;2022-09-17T15:56:34;6.13;;;1.23;;
8857;SDS011;4465;50.904;4.696;2022-09-17T15:59:04;10.85;;;1.38;;
8857;SDS011;4465;50.904;4.696;2022-09-17T16:07:16;14.30;;;1.63;;
8857;SDS011;4465;50.904;4.696;2022-09-17T16:09:51;5.18;;;1.20;;
8857;SDS011;4465;50.904;4.696;2022-09-17T16:12:23;7.70;;;1.60;;
8857;SDS011;4465;50.904;4.696;2022-09-17T16:14:59;9.98;;;1.50;;
8857;SDS011;4465;50.904;4.696;2022-09-17T16:17:41;7.05;;;1.50;;
8857;SDS011;4465;50.904;4.696;2022-09-17T16:20:19;9.82;;;1.42;;
8857;SDS011;4465;50.904;4.696;2022-09-17T16:22:48;8.65;;;1.52;;
8857;SDS011;4465;50.904;4.696;2022-09-17T16:25:16;9.00;;;1.60;;
8857;SDS011;4465;50.904;4.696;2022-09-17T16:30:14;6.85;;;1.63;;
8857;SDS011;4465;50.904;4.696;2022-09-17T16:32:42;9.40;;;1.90;;
8857;SDS011;4465;50.904;4.696;2022-09-17T16:35:15;7.10;;;1.15;;
8857;SDS011;4465;50.904;4.696;2022-09-17T16:37:47;9.27;;;1.60;;
8857;SDS011;4465;50.904;4.696;2022-09-17T16:40:17;10.13;;;1.55;;
8857;SDS011;4465;50.904;4.696;2022-09-17T16:42:44;10.02;;;1.73;;
8857;SDS011;4465;50.904;4.696;2022-09-17T16:45:11;12.77;;;1.80;;
8857;SDS011;4465;50.904;4.696;2022-09-17T16:47:39;5.93;;;1.47;;
8857;SDS011;4465;50.904;4.696;2022-09-17T16:50:10;8.65;;;1.55;;
8857;SDS011;4465;50.904;4.696;2022-09-17T16:52:40;8.07;;;1.25;;
8857;SDS011;4465;50.904;4.696;2022-09-17T16:55:06;13.00;;;1.60;;
8857;SDS011;4465;50.904;4.696;2022-09-17T16:57:33;4.03;;;1.33;;
8857;SDS011;4465;50.904;4.696;2022-09-17T17:00:00;9.68;;;2.00;;
8857;SDS011;4465;50.904;4.696;2022-09-17T17:02:26;13.90;;;2.30;;
8857;SDS011;4465;50.904;4.696;2022-09-17T17:04:52;10.05;;;1.85;;
8857;SDS011;4465;50.904;4.696;2022-09-17T17:07:18;8.02;;;1.70;;
8857;SDS011;4465;50.904;4.696;2022-09-17T17:09:46;10.45;;;1.70;;
8857;SDS011;4465;50.904;4.696;2022-09-17T17:12:12;13.60;;;2.83;;
8857;SDS011;4465;50.904;4.696;2022-09-17T17:14:38;10.00;;;1.80;;
8857;SDS011;4465;50.904;4.696;2022-09-17T17:17:04;7.85;;;1.83;;
8857;SDS011;4465;50.904;4.696;2022-09-17T17:19:31;9.02;;;2.17;;
8857;SDS011;4465;50.904;4.696;2022-09-17T17:21:59;14.27;;;2.70;;
8857;SDS011;4465;50.904;4.696;2022-09-17T17:24:24;9.77;;;1.85;;
8857;SDS011;4465;50.904;4.696;2022-09-17T17:26:51;6.55;;;2.13;;
8857;SDS011;4465;50.904;4.696;2022-09-17T17:29:22;12.57;;;2.58;;
8857;SDS011;4465;50.904;4.696;2022-09-17T17:31:48;11.57;;;2.53;;
8857;SDS011;4465;50.904;4.696;2022-09-17T17:34:16;12.85;;;2.28;;
8857;SDS011;4465;50.904;4.696;2022-09-17T17:36:43;10.05;;;2.22;;
8857;SDS011;4465;50.904;4.696;2022-09-17T17:39:09;13.68;;;2.25;;
8857;SDS011;4465;50.904;4.696;2022-09-17T17:41:36;8.10;;;2.20;;
8857;SDS011;4465;50.904;4.696;2022-09-17T17:44:02;15.32;;;2.95;;
8857;SDS011;4465;50.904;4.696;2022-09-17T17:46:27;10.68;;;2.20;;
8857;SDS011;4465;50.904;4.696;2022-09-17T17:48:54;10.98;;;2.50;;
8857;SDS011;4465;50.904;4.696;2022-09-17T17:51:20;11.30;;;2.47;;
8857;SDS011;4465;50.904;4.696;2022-09-17T17:53:51;6.43;;;1.73;;
8857;SDS011;4465;50.904;4.696;2022-09-17T17:56:17;9.48;;;2.05;;
8857;SDS011;4465;50.904;4.696;2022-09-17T17:58:45;14.05;;;2.20;;
8857;SDS011;4465;50.904;4.696;2022-09-17T18:01:12;12.55;;;2.20;;
8857;SDS011;4465;50.904;4.696;2022-09-17T18:03:41;17.70;;;1.90;;
8857;SDS011;4465;50.904;4.696;2022-09-17T18:06:08;13.00;;;2.08;;
8857;SDS011;4465;50.904;4.696;2022-09-17T18:08:34;9.05;;;2.13;;
8857;SDS011;4465;50.904;4.696;2022-09-17T18:11:02;16.20;;;2.42;;
8857;SDS011;4465;50.904;4.696;2022-09-17T18:13:29;8.63;;;2.35;;
8857;SDS011;4465;50.904;4.696;2022-09-17T18:15:56;14.60;;;2.28;;
8857;SDS011;4465;50.904;4.696;2022-09-17T18:18:32;6.85;;;2.00;;
8857;SDS011;4465;50.904;4.696;2022-09-17T18:21:01;15.27;;;2.53;;
8857;SDS011;4465;50.904;4.696;2022-09-17T18:23:30;9.07;;;2.30;;
8857;SDS011;4465;50.904;4.696;2022-09-17T18:26:01;8.88;;;3.13;;
8857;SDS011;4465;50.904;4.696;2022-09-17T18:28:30;13.18;;;3.00;;
8857;SDS011;4465;50.904;4.696;2022-09-17T18:31:09;14.82;;;3.17;;
8857;SDS011;4465;50.904;4.696;2022-09-17T18:33:40;14.02;;;2.88;;
8857;SDS011;4465;50.904;4.696;2022-09-17T18:36:08;9.18;;;2.47;;
8857;SDS011;4465;50.904;4.696;2022-09-17T18:38:35;12.60;;;2.38;;
8857;SDS011;4465;50.904;4.696;2022-09-17T18:41:07;14.15;;;2.40;;
8857;SDS011;4465;50.904;4.696;2022-09-17T18:43:35;8.88;;;2.47;;
8857;SDS011;4465;50.904;4.696;2022-09-17T18:46:02;10.40;;;3.10;;
8857;SDS011;4465;50.904;4.696;2022-09-17T18:48:29;9.23;;;2.60;;
8857;SDS011;4465;50.904;4.696;2022-09-17T18:51:00;7.05;;;2.35;;
8857;SDS011;4465;50.904;4.696;2022-09-17T18:53:34;11.75;;;2.42;;
8857;SDS011;4465;50.904;4.696;2022-09-17T18:56:03;10.20;;;2.88;;
8857;SDS011;4465;50.904;4.696;2022-09-17T18:58:51;10.10;;;2.63;;
8857;SDS011;4465;50.904;4.696;2022-09-17T19:01:19;11.65;;;2.80;;
8857;SDS011;4465;50.904;4.696;2022-09-17T19:03:46;11.77;;;2.58;;
8857;SDS011;4465;50.904;4.696;2022-09-17T19:06:13;12.98;;;2.53;;
8857;SDS011;4465;50.904;4.696;2022-09-17T19:08:43;9.10;;;2.83;;
8857;SDS011;4465;50.904;4.696;2022-09-17T19:11:12;11.43;;;3.03;;
8857;SDS011;4465;50.904;4.696;2022-09-17T19:13:40;15.98;;;3.72;;
8857;SDS011;4465;50.904;4.696;2022-09-17T19:16:08;10.93;;;3.10;;
8857;SDS011;4465;50.904;4.696;2022-09-17T19:18:36;10.10;;;2.70;;
8857;SDS011;4465;50.904;4.696;2022-09-17T19:21:05;15.65;;;5.25;;
8857;SDS011;4465;50.904;4.696;2022-09-17T19:23:33;14.00;;;3.15;;